createdAt,value
2018-10-05T00:00:34.870Z,5.90
2018-10-05T00:01:34.857Z,5.98
2018-10-05T00:02:34.847Z,5.77
2018-10-05T00:03:34.850Z,5.77
2018-10-05T00:04:34.824Z,5.65
2018-10-05T00:05:34.826Z,5.67
2018-10-05T00:06:34.829Z,5.75
2018-10-05T00:07:34.798Z,5.60
2018-10-05T00:08:34.799Z,5.69
2018-10-05T00:09:34.775Z,5.56
2018-10-05T00:10:34.761Z,5.48
2018-10-05T00:11:34.752Z,5.49
2018-10-05T00:12:34.823Z,5.62
2018-10-05T00:13:34.744Z,5.58
2018-10-05T00:14:34.720Z,5.55
2018-10-05T00:15:34.709Z,5.58
2018-10-05T00:16:34.697Z,5.48
2018-10-05T00:17:34.692Z,5.65
2018-10-05T00:18:34.712Z,5.62
2018-10-05T00:19:34.666Z,5.77
2018-10-05T00:20:34.728Z,5.90
2018-10-05T00:21:34.645Z,5.90
2018-10-05T00:22:34.636Z,5.93
2018-10-05T00:23:34.623Z,5.88
2018-10-05T00:24:34.650Z,5.90
2018-10-05T00:25:34.603Z,5.90
2018-10-05T00:26:34.593Z,5.90
2018-10-05T00:27:34.581Z,5.90
2018-10-05T00:28:34.567Z,5.80
2018-10-05T00:29:34.572Z,5.80
2018-10-05T00:30:34.558Z,5.78
2018-10-05T00:31:34.541Z,5.75
2018-10-05T00:32:34.600Z,5.77
2018-10-05T00:33:34.526Z,5.78
2018-10-05T00:34:34.521Z,5.75
2018-10-05T00:35:34.494Z,5.88
2018-10-05T00:36:34.497Z,5.90
2018-10-05T00:37:34.474Z,5.92
2018-10-05T00:38:34.474Z,6.14
2018-10-05T00:39:34.468Z,6.90
2018-10-05T00:40:34.440Z,7.34
2018-10-05T00:41:34.429Z,7.89
2018-10-05T00:42:34.439Z,8.14
2018-10-05T00:43:34.409Z,8.29
2018-10-05T00:44:34.411Z,8.40
2018-10-05T00:45:34.409Z,8.57
2018-10-05T00:46:34.377Z,8.61
2018-10-05T00:47:34.366Z,8.70
2018-10-05T00:48:34.381Z,8.73
2018-10-05T00:49:34.357Z,8.70
2018-10-05T00:50:34.334Z,8.61
2018-10-05T00:51:34.348Z,8.45
2018-10-05T00:52:34.313Z,8.32
2018-10-05T00:53:34.406Z,8.14
2018-10-05T00:54:34.323Z,8.03
2018-10-05T00:55:34.284Z,7.71
2018-10-05T00:56:34.270Z,7.60
2018-10-05T00:57:34.262Z,7.45
2018-10-05T00:58:34.248Z,7.24
2018-10-05T00:59:34.255Z,7.09
2018-10-05T01:00:34.256Z,7.01
2018-10-05T01:01:34.252Z,6.96
2018-10-05T01:02:34.207Z,6.86
2018-10-05T01:03:34.198Z,6.75
2018-10-05T01:04:34.197Z,6.57
2018-10-05T01:05:34.177Z,6.48
2018-10-05T01:06:34.177Z,6.51
2018-10-05T01:07:34.154Z,6.38
2018-10-05T01:08:34.141Z,6.33
2018-10-05T01:09:34.149Z,6.33
2018-10-05T01:10:34.119Z,6.40
2018-10-05T01:11:34.272Z,6.27
2018-10-05T01:12:34.116Z,6.25
2018-10-05T01:13:34.089Z,6.35
2018-10-05T01:14:34.093Z,6.39
2018-10-05T01:15:34.069Z,6.17
2018-10-05T01:16:34.057Z,6.27
2018-10-05T01:17:34.047Z,6.36
2018-10-05T01:18:34.050Z,6.38
2018-10-05T01:19:34.038Z,6.16
2018-10-05T01:20:34.012Z,6.13
2018-10-05T01:21:34.003Z,6.02
2018-10-05T01:22:33.992Z,5.93
2018-10-05T01:23:33.983Z,5.96
2018-10-05T01:24:34.002Z,6.01
2018-10-05T01:25:33.961Z,5.90
2018-10-05T01:26:33.949Z,5.88
2018-10-05T01:27:33.939Z,5.92
2018-10-05T01:28:33.928Z,5.90
2018-10-05T01:29:33.932Z,5.95
2018-10-05T01:30:33.929Z,5.83
2018-10-05T01:31:33.896Z,5.78
2018-10-05T01:32:33.883Z,5.70
2018-10-05T01:33:33.873Z,5.73
2018-10-05T01:34:33.878Z,5.74
2018-10-05T01:35:33.852Z,5.83
2018-10-05T01:36:33.862Z,5.77
2018-10-05T01:37:33.830Z,5.73
2018-10-05T01:38:33.820Z,5.62
2018-10-05T01:39:33.829Z,5.58
2018-10-05T01:40:33.801Z,5.48
2018-10-05T01:41:33.790Z,5.44
2018-10-05T01:42:33.796Z,5.44
2018-10-05T01:43:33.766Z,5.40
2018-10-05T01:44:33.771Z,5.47
2018-10-05T01:45:33.752Z,5.41
2018-10-05T01:46:33.735Z,5.45
2018-10-05T01:47:33.725Z,5.60
2018-10-05T01:48:33.728Z,5.60
2018-10-05T01:49:33.715Z,5.60
2018-10-05T01:50:33.693Z,5.78
2018-10-05T01:51:33.684Z,5.63
2018-10-05T01:52:33.677Z,5.78
2018-10-05T01:53:33.659Z,5.88
2018-10-05T01:54:33.675Z,6.14
2018-10-05T01:55:33.654Z,6.10
2018-10-05T01:56:33.630Z,6.01
2018-10-05T01:57:33.616Z,5.87
2018-10-05T01:58:33.607Z,5.74
2018-10-05T01:59:33.626Z,5.74
2018-10-05T02:00:33.587Z,5.77
2018-10-05T02:01:33.591Z,5.66
2018-10-05T02:02:33.611Z,5.55
2018-10-05T02:03:33.595Z,5.62
2018-10-05T02:04:33.542Z,5.62
2018-10-05T02:05:33.545Z,5.65
2018-10-05T02:06:33.521Z,5.67
2018-10-05T02:07:33.525Z,5.58
2018-10-05T02:08:33.499Z,5.62
2018-10-05T02:09:33.490Z,5.58
2018-10-05T02:10:33.493Z,5.59
2018-10-05T02:11:33.468Z,5.59
2018-10-05T02:12:33.494Z,5.55
2018-10-05T02:13:33.446Z,5.45
2018-10-05T02:14:33.436Z,5.45
2018-10-05T02:15:33.439Z,5.44
2018-10-05T02:16:33.416Z,5.35
2018-10-05T02:17:33.405Z,5.38
2018-10-05T02:18:33.414Z,5.33
2018-10-05T02:19:33.381Z,5.38
2018-10-05T02:20:33.385Z,5.35
2018-10-05T02:21:33.363Z,5.41
2018-10-05T02:22:33.371Z,5.38
2018-10-05T02:23:33.341Z,5.51
2018-10-05T02:24:33.340Z,5.70
2018-10-05T02:25:33.356Z,5.78
2018-10-05T02:26:33.309Z,5.87
2018-10-05T02:27:33.353Z,5.85
2018-10-05T02:28:33.287Z,5.75
2018-10-05T02:29:33.276Z,5.78
2018-10-05T02:30:33.282Z,5.73
2018-10-05T02:31:33.270Z,5.45
2018-10-05T02:32:33.266Z,5.51
2018-10-05T02:33:33.238Z,5.41
2018-10-05T02:34:33.228Z,5.62
2018-10-05T02:35:33.227Z,5.93
2018-10-05T02:36:33.203Z,5.92
2018-10-05T02:37:33.221Z,5.87
2018-10-05T02:38:33.184Z,6.03
2018-10-05T02:39:33.177Z,6.03
2018-10-05T02:40:33.176Z,6.01
2018-10-05T02:41:33.193Z,6.02
2018-10-05T02:42:33.141Z,5.90
2018-10-05T02:43:33.148Z,5.87
2018-10-05T02:44:33.118Z,6.10
2018-10-05T02:45:33.122Z,5.98
2018-10-05T02:46:33.099Z,5.96
2018-10-05T02:47:33.087Z,5.93
2018-10-05T02:48:33.079Z,6.01
2018-10-05T02:49:33.090Z,5.98
2018-10-05T02:50:33.069Z,5.90
2018-10-05T02:51:33.045Z,5.77
2018-10-05T02:52:33.034Z,5.77
2018-10-05T02:53:33.029Z,5.75
2018-10-05T02:54:33.013Z,5.75
2018-10-05T02:55:33.038Z,5.67
2018-10-05T02:56:32.993Z,5.51
2018-10-05T02:57:32.981Z,5.74
2018-10-05T02:58:32.979Z,5.84
2018-10-05T02:59:32.964Z,6.01
2018-10-05T03:00:32.967Z,6.43
2018-10-05T03:01:32.953Z,6.81
2018-10-05T03:02:32.928Z,7.12
2018-10-05T03:03:32.916Z,7.21
2018-10-05T03:04:32.909Z,7.37
2018-10-05T03:05:32.920Z,7.57
2018-10-05T03:06:32.885Z,7.73
2018-10-05T03:07:32.905Z,7.81
2018-10-05T03:08:32.864Z,7.81
2018-10-05T03:09:32.854Z,7.99
2018-10-05T03:10:32.845Z,8.02
2018-10-05T03:11:32.846Z,8.18
2018-10-05T03:12:32.822Z,8.10
2018-10-05T03:13:32.826Z,8.14
2018-10-05T03:14:32.805Z,8.13
2018-10-05T03:15:32.788Z,8.28
2018-10-05T03:16:32.791Z,8.29
2018-10-05T03:17:32.767Z,8.27
2018-10-05T03:18:32.755Z,8.17
2018-10-05T03:19:32.761Z,8.21
2018-10-05T03:20:32.741Z,8.07
2018-10-05T03:21:32.739Z,8.02
2018-10-05T03:22:32.715Z,7.96
2018-10-05T03:23:32.702Z,7.86
2018-10-05T03:24:32.694Z,7.74
2018-10-05T03:25:32.704Z,7.67
2018-10-05T03:26:32.688Z,7.63
2018-10-05T03:27:32.661Z,7.51
2018-10-05T03:28:32.649Z,7.32
2018-10-05T03:29:32.638Z,7.21
2018-10-05T03:30:32.635Z,7.15
2018-10-05T03:31:32.652Z,7.01
2018-10-05T03:32:32.607Z,6.96
2018-10-05T03:33:32.599Z,6.83
2018-10-05T03:34:32.586Z,6.76
2018-10-05T03:35:32.573Z,6.65
2018-10-05T03:36:32.579Z,6.50
2018-10-05T03:37:32.580Z,6.38
2018-10-05T03:38:32.542Z,6.25
2018-10-05T03:39:32.530Z,5.98
2018-10-05T03:40:32.522Z,5.96
2018-10-05T03:41:32.524Z,5.81
2018-10-05T03:42:32.500Z,5.77
2018-10-05T03:43:32.499Z,5.75
2018-10-05T03:44:32.477Z,5.69
2018-10-05T03:45:32.466Z,5.58
2018-10-05T03:46:32.473Z,5.49
2018-10-05T03:47:32.446Z,5.35
2018-10-05T03:48:32.434Z,5.37
2018-10-05T03:49:32.455Z,5.42
2018-10-05T03:50:32.423Z,5.32
2018-10-05T03:51:32.419Z,5.37
2018-10-05T03:52:32.393Z,5.29
2018-10-05T03:53:32.382Z,5.32
2018-10-05T03:54:32.370Z,5.19
2018-10-05T03:55:32.390Z,5.24
2018-10-05T03:56:32.381Z,5.23
2018-10-05T03:57:32.338Z,5.11
2018-10-05T03:58:32.328Z,5.23
2018-10-05T03:59:32.322Z,5.19
2018-10-05T04:00:32.343Z,5.23
2018-10-05T04:01:32.320Z,5.24
2018-10-05T04:02:32.302Z,5.08
2018-10-05T04:03:32.276Z,5.14
2018-10-05T04:04:32.269Z,5.26
2018-10-05T04:05:32.260Z,5.15
2018-10-05T04:06:32.248Z,5.24
2018-10-05T04:07:32.275Z,5.19
2018-10-05T04:08:32.228Z,5.14
2018-10-05T04:09:32.216Z,5.14
2018-10-05T04:10:32.210Z,5.14
2018-10-05T04:11:32.194Z,5.08
2018-10-05T04:12:32.196Z,5.14
2018-10-05T04:13:32.203Z,5.17
2018-10-05T04:14:32.161Z,5.22
2018-10-05T04:15:32.152Z,5.23
2018-10-05T04:16:32.141Z,5.14
2018-10-05T04:17:32.148Z,5.23
2018-10-05T04:18:32.119Z,5.14
2018-10-05T04:19:32.142Z,5.09
2018-10-05T04:20:32.103Z,5.14
2018-10-05T04:21:32.093Z,5.23
2018-10-05T04:22:32.094Z,5.06
2018-10-05T04:23:32.068Z,5.12
2018-10-05T04:24:32.056Z,5.08
2018-10-05T04:25:32.072Z,4.99
2018-10-05T04:26:32.038Z,4.97
2018-10-05T04:27:32.042Z,4.97
2018-10-05T04:28:32.016Z,4.97
2018-10-05T04:29:32.006Z,4.96
2018-10-05T04:30:31.995Z,4.90
2018-10-05T04:31:32.004Z,5.01
2018-10-05T04:32:32.000Z,4.94
2018-10-05T04:33:31.964Z,4.91
2018-10-05T04:34:31.953Z,5.04
2018-10-05T04:35:32.006Z,5.05
2018-10-05T04:36:31.935Z,5.14
2018-10-05T04:37:31.953Z,5.35
2018-10-05T04:38:31.913Z,5.30
2018-10-05T04:39:31.901Z,5.59
2018-10-05T04:40:31.890Z,5.65
2018-10-05T04:41:31.878Z,5.93
2018-10-05T04:42:31.895Z,6.13
2018-10-05T04:43:31.888Z,6.48
2018-10-05T04:44:31.847Z,6.76
2018-10-05T04:45:31.839Z,6.82
2018-10-05T04:46:31.872Z,6.99
2018-10-05T04:47:31.831Z,7.15
2018-10-05T04:48:31.806Z,7.15
2018-10-05T04:49:31.844Z,7.21
2018-10-05T04:50:31.785Z,7.19
2018-10-05T04:51:31.775Z,7.27
2018-10-05T04:52:31.787Z,7.30
2018-10-05T04:53:31.752Z,7.26
2018-10-05T04:54:31.748Z,7.34
2018-10-05T04:55:31.760Z,7.36
2018-10-05T04:56:31.739Z,7.48
2018-10-05T04:57:31.715Z,7.62
2018-10-05T04:58:31.719Z,7.63
2018-10-05T04:59:31.737Z,7.76
2018-10-05T05:00:31.680Z,7.88
2018-10-05T05:01:31.688Z,7.95
2018-10-05T05:02:31.657Z,8.04
2018-10-05T05:03:31.679Z,8.04
2018-10-05T05:04:31.635Z,8.02
2018-10-05T05:05:31.625Z,8.12
2018-10-05T05:06:31.615Z,8.14
2018-10-05T05:07:31.632Z,8.22
2018-10-05T05:08:31.607Z,8.25
2018-10-05T05:09:31.582Z,8.32
2018-10-05T05:10:31.573Z,8.40
2018-10-05T05:11:31.562Z,8.32
2018-10-05T05:12:31.551Z,8.45
2018-10-05T05:13:31.589Z,8.40
2018-10-05T05:14:31.534Z,8.45
2018-10-05T05:15:31.520Z,8.47
2018-10-05T05:16:31.512Z,8.50
2018-10-05T05:17:31.497Z,8.47
2018-10-05T05:18:31.501Z,8.46
2018-10-05T05:19:31.538Z,8.49
2018-10-05T05:20:31.465Z,8.49
2018-10-05T05:21:31.490Z,8.47
2018-10-05T05:22:31.445Z,8.57
2018-10-05T05:23:31.446Z,8.57
2018-10-05T05:24:31.425Z,8.63
2018-10-05T05:25:31.422Z,8.61
2018-10-05T05:26:31.426Z,8.47
2018-10-05T05:27:31.393Z,8.47
2018-10-05T05:28:31.393Z,8.50
2018-10-05T05:29:31.371Z,8.34
2018-10-05T05:30:31.357Z,8.32
2018-10-05T05:31:31.348Z,8.12
2018-10-05T05:32:31.358Z,7.99
2018-10-05T05:33:31.412Z,7.92
2018-10-05T05:34:31.317Z,7.74
2018-10-05T05:35:31.309Z,7.62
2018-10-05T05:36:31.295Z,7.39
2018-10-05T05:37:31.283Z,7.39
2018-10-05T05:38:31.307Z,7.36
2018-10-05T05:39:31.264Z,7.21
2018-10-05T05:40:31.252Z,7.18
2018-10-05T05:41:31.241Z,7.12
2018-10-05T05:42:31.230Z,6.96
2018-10-05T05:43:31.238Z,6.87
2018-10-05T05:44:31.237Z,6.89
2018-10-05T05:45:31.197Z,6.86
2018-10-05T05:46:31.188Z,6.82
2018-10-05T05:47:31.177Z,6.61
2018-10-05T05:48:31.178Z,6.48
2018-10-05T05:49:31.156Z,6.45
2018-10-05T05:50:31.175Z,6.32
2018-10-05T05:51:31.135Z,6.38
2018-10-05T05:52:31.125Z,6.55
2018-10-05T05:53:31.126Z,6.90
2018-10-05T05:54:31.149Z,7.00
2018-10-05T05:55:31.093Z,7.11
2018-10-05T05:56:31.104Z,7.19
2018-10-05T05:57:31.071Z,7.12
2018-10-05T05:58:31.075Z,7.11
2018-10-05T05:59:31.053Z,6.96
2018-10-05T06:00:31.037Z,7.04
2018-10-05T06:01:31.026Z,7.01
2018-10-05T06:02:31.048Z,6.99
2018-10-05T06:03:31.024Z,6.94
2018-10-05T06:04:30.995Z,6.96
2018-10-05T06:05:30.984Z,6.97
2018-10-05T06:06:30.973Z,6.99
2018-10-05T06:07:30.966Z,6.97
2018-10-05T06:08:30.990Z,7.09
2018-10-05T06:09:30.944Z,7.27
2018-10-05T06:10:30.931Z,7.44
2018-10-05T06:11:30.920Z,7.44
2018-10-05T06:12:30.912Z,7.47
2018-10-05T06:13:30.915Z,7.74
2018-10-05T06:14:30.897Z,7.82
2018-10-05T06:15:30.877Z,7.96
2018-10-05T06:16:30.893Z,7.99
2018-10-05T06:17:30.855Z,7.99
2018-10-05T06:18:30.862Z,8.00
2018-10-05T06:19:30.834Z,8.14
2018-10-05T06:20:30.846Z,8.25
2018-10-05T06:21:30.898Z,8.28
2018-10-05T06:22:30.946Z,8.32
2018-10-05T06:23:30.812Z,8.34
2018-10-05T06:24:30.781Z,8.46
2018-10-05T06:25:30.777Z,8.61
2018-10-05T06:26:30.780Z,8.73
2018-10-05T06:27:30.790Z,8.85
2018-10-05T06:28:30.754Z,8.94
2018-10-05T06:29:30.730Z,8.98
2018-10-05T06:30:30.728Z,9.06
2018-10-05T06:31:30.706Z,9.22
2018-10-05T06:32:30.710Z,9.71
2018-10-05T06:33:30.705Z,10.28
2018-10-05T06:34:30.676Z,10.60
2018-10-05T06:35:30.666Z,10.44
2018-10-05T06:36:30.653Z,10.38
2018-10-05T06:37:30.643Z,10.62
2018-10-05T06:38:30.686Z,10.54
2018-10-05T06:39:30.622Z,10.49
2018-10-05T06:40:30.623Z,10.87
2018-10-05T06:41:30.600Z,11.54
2018-10-05T06:42:30.649Z,12.13
2018-10-05T06:43:30.595Z,12.51
2018-10-05T06:44:30.585Z,12.74
2018-10-05T06:45:30.559Z,13.04
2018-10-05T06:46:30.547Z,13.28
2018-10-05T06:47:30.538Z,13.65
2018-10-05T06:48:30.542Z,13.87
2018-10-05T06:49:30.515Z,14.27
2018-10-05T06:50:30.518Z,14.41
2018-10-05T06:51:30.495Z,14.29
2018-10-05T06:52:30.485Z,14.36
2018-10-05T06:53:30.487Z,14.46
2018-10-05T06:54:30.467Z,14.64
2018-10-05T06:55:30.476Z,14.66
2018-10-05T06:56:30.441Z,14.63
2018-10-05T06:57:30.430Z,15.15
2018-10-05T06:58:30.435Z,15.41
2018-10-05T06:59:30.408Z,15.28
2018-10-05T07:00:30.397Z,15.28
2018-10-05T07:01:30.464Z,15.64
2018-10-05T07:02:30.376Z,15.98
2018-10-05T07:03:30.377Z,15.74
2018-10-05T07:04:30.358Z,15.99
2018-10-05T07:05:30.343Z,16.11
2018-10-05T07:06:30.332Z,16.33
2018-10-05T07:07:30.358Z,16.16
2018-10-05T07:08:30.325Z,15.80
2018-10-05T07:09:30.301Z,16.03
2018-10-05T07:10:30.289Z,16.14
2018-10-05T07:11:30.318Z,15.89
2018-10-05T07:12:30.268Z,15.92
2018-10-05T07:13:30.292Z,15.96
2018-10-05T07:14:30.247Z,15.95
2018-10-05T07:15:30.242Z,15.62
2018-10-05T07:16:30.228Z,15.73
2018-10-05T07:17:30.214Z,15.60
2018-10-05T07:18:30.217Z,15.66
2018-10-05T07:19:30.207Z,15.78
2018-10-05T07:20:30.196Z,16.06
2018-10-05T07:21:30.259Z,16.08
2018-10-05T07:22:30.249Z,16.11
2018-10-05T07:23:30.172Z,16.13
2018-10-05T07:24:30.150Z,16.65
2018-10-05T07:25:30.145Z,16.57
2018-10-05T07:26:30.121Z,16.72
2018-10-05T07:27:30.153Z,16.48
2018-10-05T07:28:30.268Z,16.22
2018-10-05T07:29:30.092Z,16.44
2018-10-05T07:30:30.092Z,16.73
2018-10-05T07:31:30.066Z,16.72
2018-10-05T07:32:30.074Z,16.57
2018-10-05T07:33:30.058Z,16.60
2018-10-05T07:34:30.031Z,16.92
2018-10-05T07:35:30.034Z,17.14
2018-10-05T07:36:30.029Z,17.00
2018-10-05T07:37:30.089Z,17.18
2018-10-05T07:38:30.011Z,16.99
2018-10-05T07:39:29.978Z,17.18
2018-10-05T07:40:29.968Z,17.35
2018-10-05T07:41:29.976Z,17.63
2018-10-05T07:42:29.949Z,17.86
2018-10-05T07:43:29.951Z,18.01
2018-10-05T07:44:29.927Z,18.32
2018-10-05T07:45:29.912Z,17.99
2018-10-05T07:46:29.906Z,18.05
2018-10-05T07:47:29.899Z,18.38
2018-10-05T07:48:29.915Z,18.65
2018-10-05T07:49:29.891Z,18.57
2018-10-05T07:50:29.860Z,18.50
2018-10-05T07:51:29.850Z,18.07
2018-10-05T07:52:29.838Z,17.49
2018-10-05T07:53:29.827Z,17.24
2018-10-05T07:54:29.832Z,17.54
2018-10-05T07:55:29.815Z,17.95
2018-10-05T07:56:29.816Z,17.89
2018-10-05T07:57:29.884Z,17.84
2018-10-05T07:58:29.790Z,17.99
2018-10-05T07:59:29.817Z,18.51
2018-10-05T08:00:29.765Z,18.79
2018-10-05T08:01:29.755Z,18.69
2018-10-05T08:02:29.740Z,18.97
2018-10-05T08:03:29.735Z,19.50
2018-10-05T08:04:29.722Z,18.68
2018-10-05T08:05:29.704Z,18.71
2018-10-05T08:06:29.705Z,19.12
2018-10-05T08:07:29.686Z,19.16
2018-10-05T08:08:29.679Z,19.09
2018-10-05T08:09:29.711Z,18.97
2018-10-05T08:10:29.647Z,18.87
2018-10-05T08:11:29.635Z,18.97
2018-10-05T08:12:29.629Z,19.35
2018-10-05T08:13:29.628Z,19.39
2018-10-05T08:14:29.638Z,18.89
2018-10-05T08:15:29.613Z,18.82
2018-10-05T08:16:29.585Z,18.60
2018-10-05T08:17:29.592Z,18.94
2018-10-05T08:18:29.563Z,19.28
2018-10-05T08:19:29.603Z,19.58
2018-10-05T08:20:29.583Z,20.16
2018-10-05T08:21:29.604Z,20.27
2018-10-05T08:22:29.543Z,19.34
2018-10-05T08:23:29.512Z,19.49
2018-10-05T08:24:29.513Z,19.49
2018-10-05T08:25:29.503Z,19.35
2018-10-05T08:26:29.522Z,19.32
2018-10-05T08:27:29.468Z,19.39
2018-10-05T08:28:29.467Z,19.31
2018-10-05T08:29:29.481Z,19.24
2018-10-05T08:30:29.454Z,19.52
2018-10-05T08:31:29.434Z,19.87
2018-10-05T08:32:29.422Z,20.17
2018-10-05T08:33:29.402Z,20.51
2018-10-05T08:34:29.444Z,20.91
2018-10-05T08:35:29.395Z,21.09
2018-10-05T08:36:29.363Z,21.21
2018-10-05T08:37:29.372Z,21.52
2018-10-05T08:38:29.369Z,21.34
2018-10-05T08:39:29.360Z,21.05
2018-10-05T08:40:29.342Z,20.96
2018-10-05T08:41:29.333Z,21.26
2018-10-05T08:42:29.329Z,21.52
2018-10-05T08:43:29.292Z,21.21
2018-10-05T08:44:29.304Z,21.38
2018-10-05T08:45:29.309Z,21.48
2018-10-05T08:46:29.259Z,21.22
2018-10-05T08:47:29.268Z,21.16
2018-10-05T08:48:29.238Z,21.18
2018-10-05T08:49:29.272Z,21.45
2018-10-05T08:50:29.218Z,21.61
2018-10-05T08:51:29.255Z,21.73
2018-10-05T08:52:29.207Z,21.91
2018-10-05T08:53:29.188Z,22.09
2018-10-05T08:54:29.188Z,21.93
2018-10-05T08:55:29.159Z,22.06
2018-10-05T08:56:29.165Z,22.21
2018-10-05T08:57:29.137Z,22.09
2018-10-05T08:58:29.145Z,21.90
2018-10-05T08:59:29.142Z,21.79
2018-10-05T09:00:29.172Z,21.49
2018-10-05T09:01:29.103Z,21.79
2018-10-05T09:02:29.086Z,21.94
2018-10-05T09:03:29.077Z,21.91
2018-10-05T09:04:29.081Z,21.91
2018-10-05T09:05:29.060Z,21.38
2018-10-05T09:06:29.043Z,21.37
2018-10-05T09:07:29.029Z,21.08
2018-10-05T09:08:29.024Z,21.16
2018-10-05T09:09:29.036Z,21.30
2018-10-05T09:10:29.022Z,21.11
2018-10-05T09:11:28.999Z,20.44
2018-10-05T09:12:28.990Z,20.40
2018-10-05T09:13:28.968Z,20.53
2018-10-05T09:14:28.975Z,20.37
2018-10-05T09:15:28.969Z,20.48
2018-10-05T09:16:28.954Z,20.40
2018-10-05T09:17:28.937Z,20.37
2018-10-05T09:18:28.922Z,20.96
2018-10-05T09:19:28.927Z,21.55
2018-10-05T09:20:28.901Z,21.08
2018-10-05T09:21:28.889Z,20.93
2018-10-05T09:22:28.936Z,21.03
2018-10-05T09:23:28.881Z,21.61
2018-10-05T09:24:28.870Z,21.93
2018-10-05T09:25:28.844Z,22.42
2018-10-05T09:26:28.829Z,22.84
2018-10-05T09:27:28.834Z,23.01
2018-10-05T09:28:28.812Z,23.26
2018-10-05T09:29:28.824Z,23.44
2018-10-05T09:30:28.815Z,23.22
2018-10-05T09:31:28.780Z,22.93
2018-10-05T09:32:28.791Z,23.12
2018-10-05T09:33:28.761Z,23.09
2018-10-05T09:34:28.765Z,22.63
2018-10-05T09:35:28.748Z,22.61
2018-10-05T09:36:28.736Z,22.33
2018-10-05T09:37:28.742Z,22.04
2018-10-05T09:38:28.715Z,21.90
2018-10-05T09:39:29.437Z,22.33
2018-10-05T09:40:28.719Z,22.74
2018-10-05T09:41:29.293Z,22.82
2018-10-05T09:42:28.662Z,22.63
2018-10-05T09:43:28.650Z,22.30
2018-10-05T09:44:28.657Z,22.38
2018-10-05T09:45:28.635Z,22.64
2018-10-05T09:46:28.617Z,22.54
2018-10-05T09:47:28.603Z,22.70
2018-10-05T09:48:28.599Z,22.94
2018-10-05T09:49:28.596Z,23.14
2018-10-05T09:50:28.570Z,23.14
2018-10-05T09:51:28.565Z,23.23
2018-10-05T09:52:28.659Z,23.44
2018-10-05T09:53:28.543Z,23.07
2018-10-05T09:54:28.544Z,23.59
2018-10-05T09:55:28.517Z,23.82
2018-10-05T09:56:28.508Z,23.84
2018-10-05T09:57:28.503Z,23.47
2018-10-05T09:58:28.488Z,23.09
2018-10-05T09:59:28.493Z,23.06
2018-10-05T10:00:28.471Z,23.68
2018-10-05T10:01:28.461Z,23.75
2018-10-05T10:02:28.449Z,23.31
2018-10-05T10:03:28.491Z,23.32
2018-10-05T10:04:28.466Z,22.99
2018-10-05T10:05:28.442Z,23.35
2018-10-05T10:06:28.409Z,23.67
2018-10-05T10:07:28.398Z,24.18
2018-10-05T10:08:28.491Z,24.14
2018-10-05T10:09:28.394Z,23.75
2018-10-05T10:10:28.361Z,23.47
2018-10-05T10:11:28.355Z,23.69
2018-10-05T10:12:28.342Z,23.54
2018-10-05T10:13:28.339Z,23.92
2018-10-05T10:14:28.351Z,24.37
2018-10-05T10:15:28.308Z,23.78
2018-10-05T10:16:28.300Z,23.67
2018-10-05T10:17:28.289Z,24.09
2018-10-05T10:18:28.276Z,24.39
2018-10-05T10:19:28.283Z,25.01
2018-10-05T10:20:28.259Z,24.68
2018-10-05T10:21:28.255Z,24.15
2018-10-05T10:22:28.294Z,23.79
2018-10-05T10:23:28.228Z,23.79
2018-10-05T10:24:28.237Z,23.49
2018-10-05T10:25:28.219Z,23.15
2018-10-05T10:26:28.200Z,23.35
2018-10-05T10:27:28.236Z,24.06
2018-10-05T10:28:28.224Z,24.41
2018-10-05T10:29:28.211Z,24.84
2018-10-05T10:30:28.174Z,25.09
2018-10-05T10:31:28.148Z,25.09
2018-10-05T10:32:28.143Z,25.16
2018-10-05T10:33:28.138Z,24.90
2018-10-05T10:34:28.182Z,25.09
2018-10-05T10:35:28.112Z,25.09
2018-10-05T10:36:28.098Z,25.27
2018-10-05T10:37:28.136Z,25.16
2018-10-05T10:38:28.073Z,25.49
2018-10-05T10:39:28.081Z,25.79
2018-10-05T10:40:28.052Z,25.93
2018-10-05T10:41:28.044Z,25.60
2018-10-05T10:42:28.067Z,25.49
2018-10-05T10:43:28.024Z,25.44
2018-10-05T10:44:28.027Z,25.09
2018-10-05T10:45:28.005Z,25.35
2018-10-05T10:46:27.996Z,25.46
2018-10-05T10:47:27.979Z,25.61
2018-10-05T10:48:27.978Z,25.81
2018-10-05T10:49:27.989Z,25.34
2018-10-05T10:50:27.949Z,25.41
2018-10-05T10:51:27.939Z,24.83
2018-10-05T10:52:27.928Z,24.83
2018-10-05T10:53:27.921Z,25.34
2018-10-05T10:54:27.928Z,25.59
2018-10-05T10:55:27.895Z,25.24
2018-10-05T10:56:27.890Z,24.97
2018-10-05T10:57:27.884Z,25.44
2018-10-05T10:58:27.887Z,25.54
2018-10-05T10:59:27.883Z,25.71
2018-10-05T11:00:27.860Z,25.35
2018-10-05T11:01:27.834Z,25.24
2018-10-05T11:02:27.825Z,25.26
2018-10-05T11:03:27.822Z,25.30
2018-10-05T11:04:27.856Z,24.71
2018-10-05T11:05:27.794Z,24.41
2018-10-05T11:06:27.785Z,24.83
2018-10-05T11:07:27.783Z,24.70
2018-10-05T11:08:27.763Z,24.05
2018-10-05T11:09:27.768Z,24.14
2018-10-05T11:10:27.736Z,23.81
2018-10-05T11:11:27.736Z,23.19
2018-10-05T11:12:27.727Z,23.19
2018-10-05T11:13:27.709Z,23.57
2018-10-05T11:14:27.713Z,23.23
2018-10-05T11:15:27.695Z,23.62
2018-10-05T11:16:27.681Z,23.87
2018-10-05T11:17:27.683Z,24.15
2018-10-05T11:18:27.654Z,24.00
2018-10-05T11:19:27.659Z,24.34
2018-10-05T11:20:27.641Z,24.51
2018-10-05T11:21:27.624Z,24.68
2018-10-05T11:22:27.618Z,24.79
2018-10-05T11:23:27.606Z,24.39
2018-10-05T11:24:27.605Z,23.96
2018-10-05T11:25:27.587Z,23.75
2018-10-05T11:26:27.582Z,23.34
2018-10-05T11:27:27.562Z,23.45
2018-10-05T11:28:27.553Z,23.45
2018-10-05T11:29:27.573Z,23.49
2018-10-05T11:30:27.541Z,23.16
2018-10-05T11:31:27.527Z,23.38
2018-10-05T11:32:27.514Z,23.37
2018-10-05T11:33:27.502Z,23.41
2018-10-05T11:34:27.500Z,23.34
2018-10-05T11:35:27.477Z,23.16
2018-10-05T11:36:27.465Z,23.26
2018-10-05T11:37:27.453Z,23.31
2018-10-05T11:38:27.439Z,23.50
2018-10-05T11:39:27.448Z,23.77
2018-10-05T11:40:27.429Z,23.90
2018-10-05T11:41:27.414Z,23.97
2018-10-05T11:42:27.399Z,23.99
2018-10-05T11:43:27.386Z,23.92
2018-10-05T11:44:27.399Z,23.54
2018-10-05T11:45:27.375Z,23.37
2018-10-05T11:46:27.424Z,23.14
2018-10-05T11:47:27.357Z,23.06
2018-10-05T11:48:27.336Z,23.32
2018-10-05T11:49:27.343Z,23.50
2018-10-05T11:50:27.316Z,23.68
2018-10-05T11:51:27.306Z,23.82
2018-10-05T11:52:27.339Z,24.12
2018-10-05T11:53:27.683Z,24.18
2018-10-05T11:54:27.395Z,24.19
2018-10-05T11:55:35.310Z,24.14
2018-10-05T11:56:27.249Z,23.60
2018-10-05T11:57:27.240Z,23.21
2018-10-05T11:58:27.231Z,23.31
2018-10-05T11:59:27.257Z,23.18
2018-10-05T12:00:27.256Z,23.07
2018-10-05T12:01:27.262Z,22.94
2018-10-05T12:02:27.293Z,22.94
2018-10-05T12:03:27.194Z,23.00
2018-10-05T12:04:27.199Z,22.91
2018-10-05T12:05:27.174Z,22.76
2018-10-05T12:06:27.166Z,22.63
2018-10-05T12:07:27.164Z,22.45
2018-10-05T12:08:27.122Z,22.70
2018-10-05T12:09:27.109Z,22.78
2018-10-05T12:10:27.112Z,22.97
2018-10-05T12:11:27.879Z,23.09
2018-10-05T12:12:27.075Z,23.15
2018-10-05T12:13:27.074Z,23.15
2018-10-05T12:14:27.082Z,22.91
2018-10-05T12:15:27.064Z,22.70
2018-10-05T12:16:27.038Z,22.76
2018-10-05T12:17:27.091Z,22.78
2018-10-05T12:18:27.060Z,22.84
2018-10-05T12:19:27.010Z,22.84
2018-10-05T12:20:27.048Z,22.72
2018-10-05T12:21:26.988Z,22.72
2018-10-05T12:22:26.971Z,22.86
2018-10-05T12:23:26.963Z,22.72
2018-10-05T12:24:26.950Z,22.49
2018-10-05T12:25:26.952Z,22.48
2018-10-05T12:26:26.953Z,22.42
2018-10-05T12:27:26.917Z,22.45
2018-10-05T12:28:26.911Z,22.48
2018-10-05T12:29:26.909Z,22.38
2018-10-05T12:30:26.937Z,22.36
2018-10-05T12:31:26.884Z,22.39
2018-10-05T12:32:26.864Z,22.51
2018-10-05T12:33:26.866Z,22.54
2018-10-05T12:34:26.863Z,22.49
2018-10-05T12:35:26.851Z,22.52
2018-10-05T12:36:26.823Z,22.56
2018-10-05T12:37:26.820Z,22.54
2018-10-05T12:38:26.809Z,22.54
2018-10-05T12:39:26.814Z,22.57
2018-10-05T12:40:26.802Z,22.64
2018-10-05T12:41:26.773Z,22.70
2018-10-05T12:42:26.761Z,22.85
2018-10-05T12:43:26.769Z,22.96
2018-10-05T12:44:26.739Z,22.94
2018-10-05T12:45:26.767Z,22.91
2018-10-05T12:46:26.728Z,22.91
2018-10-05T12:47:26.704Z,23.03
2018-10-05T12:48:26.694Z,22.84
2018-10-05T12:49:26.690Z,22.74
2018-10-05T12:50:26.691Z,22.67
2018-10-05T12:51:26.662Z,22.64
2018-10-05T12:52:26.657Z,22.64
2018-10-05T12:53:26.661Z,22.60
2018-10-05T12:54:26.635Z,22.45
2018-10-05T12:55:26.636Z,22.49
2018-10-05T12:56:26.608Z,22.59
2018-10-05T12:57:26.599Z,22.51
2018-10-05T12:58:26.594Z,22.63
2018-10-05T12:59:26.583Z,22.63
2018-10-05T13:00:26.624Z,22.49
2018-10-05T13:01:26.556Z,22.48
2018-10-05T13:02:26.686Z,22.45
2018-10-05T13:03:26.543Z,22.45
2018-10-05T13:04:26.528Z,22.35
2018-10-05T13:05:26.531Z,22.30